CheckWX is a tool to help pilots better visualize weather data.  It is not intended as a substitute for an official pre-flight weather briefing.

12:20:38 UTC

EGMC METAR
Southend Airport
Southend, United Kingdom
Current

31 mins ago

EGMC 201150Z 26014KT 9999 FEW048 19/06 Q1022
Observed
Aug-20 @ 11:50 UTC
Wind
  • 260° at 14 KTS
Visibility
10,000+ meters
Flight Rules
VFR
Cloud Levels
  • Few at 4,800' AGL
Temperature
19°C / 66°F
Dewpoint
C / 43°F
Humidity
43%
Altimeter
30.18" Hg
Pressure
1021.92 hPa
Previous

1 hour ago

EGMC 201120Z 26014KT 9999 FEW048 19/06 Q1022
Observed
Aug-20 @ 11:20 UTC
Wind
  • 260° at 14 KTS
Visibility
10,000+ meters
Flight Rules
VFR
Cloud Levels
  • Few at 4,800' AGL
Temperature
19°C / 66°F
Dewpoint
C / 43°F
Humidity
43%
Altimeter
30.18" Hg
Pressure
1021.92 hPa
Previous

2 hours ago

EGMC 201050Z 27013KT 240V310 9999 FEW043 18/07 Q1022
Observed
Aug-20 @ 10:50 UTC
Wind
  • 270° at 13 KTS
Visibility
10,000+ meters
Flight Rules
VFR
Cloud Levels
  • Few at 4,300' AGL
Temperature
18°C / 64°F
Dewpoint
C / 45°F
Humidity
49%
Altimeter
30.18" Hg
Pressure
1021.92 hPa